createdAt,value
2023-04-12T00:01:04.250Z,98468.53
2023-04-12T00:03:34.126Z,98456.66
2023-04-12T00:06:03.712Z,98461.47
2023-04-12T00:08:33.794Z,98458.91
2023-04-12T00:11:02.033Z,98459.81
2023-04-12T00:13:29.905Z,98452.25
2023-04-12T00:15:56.804Z,98444.56
2023-04-12T00:18:25.242Z,98446.41
2023-04-12T00:20:52.924Z,98448.25
2023-04-12T00:23:20.002Z,98449.81
2023-04-12T00:25:46.952Z,98439.38
2023-04-12T00:28:14.479Z,98439.53
2023-04-12T00:30:41.806Z,98430.38
2023-04-12T00:33:08.859Z,98433.53
2023-04-12T00:35:35.731Z,98436.22
2023-04-12T00:38:03.787Z,98424.44
2023-04-12T00:40:30.804Z,98431.84
2023-04-12T00:42:57.758Z,98415.75
2023-04-12T00:45:24.696Z,98431.03
2023-04-12T00:47:51.716Z,98426.66
2023-04-12T00:50:18.621Z,98422.13
2023-04-12T00:52:45.504Z,98422.22
2023-04-12T00:55:12.331Z,98423.16
2023-04-12T00:57:40.065Z,98414.56
2023-04-12T01:00:12.517Z,98408.63
2023-04-12T01:02:47.198Z,98410.94
2023-04-12T01:05:21.705Z,98395.75
2023-04-12T01:08:15.017Z,98410.94
2023-04-12T01:11:08.861Z,98403.25
2023-04-12T01:13:42.125Z,98404.28
2023-04-12T01:16:40.724Z,98396.41
2023-04-12T01:19:35.818Z,98393.91
2023-04-12T01:22:28.020Z,98388.00
2023-04-12T01:25:07.694Z,98388.97
2023-04-12T01:27:48.776Z,98389.81
2023-04-12T01:30:19.986Z,98387.44
2023-04-12T01:32:53.814Z,98387.44
2023-04-12T01:35:24.589Z,98386.69
2023-04-12T01:37:51.653Z,98388.41
2023-04-12T01:40:19.463Z,98363.22
2023-04-12T01:42:46.411Z,98377.59
2023-04-12T01:45:13.239Z,98371.50
2023-04-12T01:47:40.201Z,98365.81
2023-04-12T01:50:37.687Z,98370.00
2023-04-12T01:53:21.512Z,98358.91
2023-04-12T01:55:50.496Z,98344.53
2023-04-12T01:58:22.178Z,98343.72
2023-04-12T02:00:51.441Z,98344.63
2023-04-12T02:03:21.867Z,98338.63
2023-04-12T02:05:52.168Z,98333.53
2023-04-12T02:08:18.983Z,98340.38
2023-04-12T02:10:46.116Z,98328.19
2023-04-12T02:13:12.972Z,98323.09
2023-04-12T02:15:40.610Z,98316.34
2023-04-12T02:18:07.499Z,98301.72
2023-04-12T02:20:35.542Z,98302.63
2023-04-12T02:23:02.362Z,98294.13
2023-04-12T02:25:29.251Z,98294.13
2023-04-12T02:27:56.065Z,98299.47
2023-04-12T02:30:23.039Z,98290.63
2023-04-12T02:32:50.178Z,98274.34
2023-04-12T02:35:17.735Z,98269.25
2023-04-12T02:37:49.394Z,98275.28
2023-04-12T02:40:16.420Z,98277.13
2023-04-12T02:42:44.537Z,98270.25
2023-04-12T02:45:12.141Z,98268.59
2023-04-12T02:47:40.647Z,98263.41
2023-04-12T02:50:08.342Z,98265.91
2023-04-12T02:52:35.185Z,98250.66
2023-04-12T02:55:02.125Z,98246.28
2023-04-12T02:57:29.034Z,98245.28
2023-04-12T02:59:55.907Z,98248.72
2023-04-12T03:02:23.831Z,98239.38
2023-04-12T03:04:54.880Z,98231.59
2023-04-12T03:07:22.654Z,98227.34
2023-04-12T03:09:50.818Z,98225.66
2023-04-12T03:12:17.727Z,98185.56
2023-04-12T03:14:44.600Z,98206.81
2023-04-12T03:17:11.610Z,98208.69
2023-04-12T03:19:38.525Z,98192.41
2023-04-12T03:22:06.119Z,98179.81
2023-04-12T03:24:37.154Z,98179.91
2023-04-12T03:27:05.581Z,98176.13
2023-04-12T03:29:32.445Z,98174.28
2023-04-12T03:32:02.348Z,98167.16
2023-04-12T03:34:32.360Z,98162.25
2023-04-12T03:37:01.556Z,98153.81
2023-04-12T03:39:29.153Z,98159.50
2023-04-12T03:41:55.973Z,98159.50
2023-04-12T03:44:26.126Z,98152.44
2023-04-12T03:46:53.105Z,98155.03
2023-04-12T03:49:20.064Z,98154.13
2023-04-12T03:51:46.916Z,98153.38
2023-04-12T03:54:14.034Z,98149.84
2023-04-12T03:56:41.045Z,98142.00
2023-04-12T03:59:08.720Z,98135.16
2023-04-12T04:01:36.114Z,98118.31
2023-04-12T04:04:04.096Z,98136.19
2023-04-12T04:06:31.234Z,98131.91
2023-04-12T04:08:58.376Z,98125.84
2023-04-12T04:11:25.755Z,98120.66
2023-04-12T04:13:52.697Z,98122.75
2023-04-12T04:16:19.640Z,98123.59
2023-04-12T04:18:46.595Z,98112.41
2023-04-12T04:21:14.335Z,98108.81
2023-04-12T04:23:44.963Z,98104.56
2023-04-12T04:26:12.470Z,98101.97
2023-04-12T04:28:44.908Z,98095.13
2023-04-12T04:31:12.883Z,98090.13
2023-04-12T04:33:41.635Z,98078.31
2023-04-12T04:36:09.634Z,98074.50
2023-04-12T04:38:36.839Z,98078.75
2023-04-12T04:41:04.503Z,98063.63
2023-04-12T04:43:34.057Z,98068.69
2023-04-12T04:46:02.228Z,98062.22
2023-04-12T04:48:30.010Z,98060.56
2023-04-12T04:50:57.185Z,98058.88
2023-04-12T04:53:24.044Z,98061.38
2023-04-12T04:55:58.364Z,98074.41
2023-04-12T04:58:25.626Z,98063.31
2023-04-12T05:00:55.928Z,98055.56
2023-04-12T05:03:23.159Z,98062.22
2023-04-12T05:05:50.181Z,98060.72
2023-04-12T05:08:17.064Z,98063.41
2023-04-12T05:10:44.402Z,98053.34
2023-04-12T05:13:11.313Z,98059.81
2023-04-12T05:15:41.013Z,98062.41
2023-04-12T05:18:07.887Z,98055.44
2023-04-12T05:20:34.943Z,98062.41
2023-04-12T05:23:01.800Z,98051.31
2023-04-12T05:25:28.649Z,98046.25
2023-04-12T05:27:55.660Z,98043.75
2023-04-12T05:30:22.603Z,98046.25
2023-04-12T05:32:49.478Z,98047.25
2023-04-12T05:35:16.523Z,98048.72
2023-04-12T05:37:43.373Z,98042.59
2023-04-12T05:40:10.903Z,98042.72
2023-04-12T05:42:37.788Z,98030.59
2023-04-12T05:45:05.677Z,98034.75
2023-04-12T05:47:32.649Z,98028.03
2023-04-12T05:49:59.476Z,98021.19
2023-04-12T05:52:26.330Z,98022.84
2023-04-12T05:54:53.141Z,97987.03
2023-04-12T05:57:20.002Z,98008.50
2023-04-12T05:59:46.840Z,97981.91
2023-04-12T06:02:13.764Z,97990.50
2023-04-12T06:04:50.130Z,97988.00
2023-04-12T06:07:19.405Z,97974.78
2023-04-12T06:09:47.224Z,97978.00
2023-04-12T06:12:14.068Z,97971.91
2023-04-12T06:14:40.862Z,97961.94
2023-04-12T06:17:07.671Z,97956.38
2023-04-12T06:19:34.476Z,97964.84
2023-04-12T06:22:01.327Z,97950.91
2023-04-12T06:24:28.112Z,97949.25
2023-04-12T06:26:54.945Z,97942.94
2023-04-12T06:29:21.784Z,97933.41
2023-04-12T06:31:49.028Z,97943.56
2023-04-12T06:34:16.063Z,97928.13
2023-04-12T06:36:43.568Z,97918.09
2023-04-12T06:39:12.096Z,97918.53
2023-04-12T06:41:38.978Z,97914.25
2023-04-12T06:44:06.038Z,97897.81
2023-04-12T06:46:32.967Z,97896.97
2023-04-12T06:49:00.101Z,97894.47
2023-04-12T06:51:28.113Z,97890.78
2023-04-12T06:53:56.198Z,97883.13
2023-04-12T06:56:23.191Z,97887.03
2023-04-12T06:58:50.012Z,97876.34
2023-04-12T07:01:17.658Z,97878.34
2023-04-12T07:03:44.843Z,97876.50
2023-04-12T07:06:24.149Z,97870.19
2023-04-12T07:08:52.636Z,97863.56
2023-04-12T07:11:22.686Z,97862.19
2023-04-12T07:13:51.275Z,97855.91
2023-04-12T07:16:18.635Z,97857.56
2023-04-12T07:18:45.606Z,97851.66
2023-04-12T07:21:17.462Z,97842.75
2023-04-12T07:23:44.683Z,97829.69
2023-04-12T07:26:11.479Z,97830.41
2023-04-12T07:28:39.366Z,97818.31
2023-04-12T07:31:07.445Z,97815.94
2023-04-12T07:33:39.378Z,97820.06
2023-04-12T07:36:08.135Z,97811.16
2023-04-12T07:38:35.069Z,97804.94
2023-04-12T07:41:01.865Z,97797.16
2023-04-12T07:43:28.713Z,97771.47
2023-04-12T07:45:56.338Z,97762.78
2023-04-12T07:48:23.372Z,97753.03
2023-04-12T07:50:50.657Z,97767.53
2023-04-12T07:53:22.632Z,97750.22
2023-04-12T07:55:50.644Z,97751.78
2023-04-12T07:58:19.045Z,97748.03
2023-04-12T08:00:46.740Z,97710.53
2023-04-12T08:03:18.662Z,97739.53
2023-04-12T08:05:46.633Z,97734.88
2023-04-12T08:08:13.452Z,97738.91
2023-04-12T08:10:40.512Z,97742.25
2023-04-12T08:13:07.665Z,97728.13
2023-04-12T08:15:34.693Z,97732.16
2023-04-12T08:18:02.652Z,97739.09
2023-04-12T08:20:29.902Z,97728.56
2023-04-12T08:22:56.788Z,97742.00
2023-04-12T08:25:24.358Z,97728.84
2023-04-12T08:27:51.732Z,97717.75
2023-04-12T08:30:19.168Z,97725.84
2023-04-12T08:32:46.335Z,97724.16
2023-04-12T08:35:14.641Z,97723.13
2023-04-12T08:37:41.916Z,97676.47
2023-04-12T08:40:09.338Z,97714.41
2023-04-12T08:42:38.054Z,97722.72
2023-04-12T08:45:09.500Z,97723.75
2023-04-12T08:47:40.241Z,97736.28
2023-04-12T08:50:09.331Z,97730.19
2023-04-12T08:52:37.818Z,97726.16
2023-04-12T08:55:09.699Z,97726.25
2023-04-12T08:57:40.737Z,97730.38
2023-04-12T09:00:10.139Z,97714.63
2023-04-12T09:02:38.539Z,97706.75
2023-04-12T09:05:06.861Z,97708.41
2023-04-12T09:07:34.184Z,97683.63
2023-04-12T09:10:01.671Z,97694.50
2023-04-12T09:12:28.614Z,97700.19
2023-04-12T09:15:17.686Z,97699.59
2023-04-12T09:17:46.253Z,97709.00
2023-04-12T09:20:18.887Z,97705.47
2023-04-12T09:22:46.831Z,97694.41
2023-04-12T09:25:15.053Z,97689.91
2023-04-12T09:27:50.314Z,97691.91
2023-04-12T09:30:19.266Z,97689.63
2023-04-12T09:32:49.342Z,97684.94
2023-04-12T09:35:16.491Z,97680.22
2023-04-12T09:37:43.385Z,97678.13
2023-04-12T09:40:11.150Z,97673.16
2023-04-12T09:42:53.462Z,97668.59
2023-04-12T09:45:26.034Z,97659.88
2023-04-12T09:47:55.797Z,97669.63
2023-04-12T09:50:28.585Z,97662.56
2023-04-12T09:52:57.423Z,97674.47
2023-04-12T09:55:29.854Z,97672.00
2023-04-12T09:57:57.022Z,97664.22
2023-04-12T10:00:26.875Z,97662.56
2023-04-12T10:02:56.981Z,97670.19
2023-04-12T10:05:26.662Z,97664.50
2023-04-12T10:07:55.531Z,97653.41
2023-04-12T10:10:23.453Z,97649.75
2023-04-12T10:12:51.162Z,97644.56
2023-04-12T10:15:18.723Z,97641.66
2023-04-12T10:17:55.442Z,97641.75
2023-04-12T10:20:26.099Z,97645.25
2023-04-12T10:22:54.250Z,97643.41
2023-04-12T10:25:24.036Z,97634.91
2023-04-12T10:27:51.530Z,97642.50
2023-04-12T10:30:22.817Z,97646.97
2023-04-12T10:33:09.844Z,97622.81
2023-04-12T10:35:52.352Z,97619.75
2023-04-12T10:38:19.512Z,97628.91
2023-04-12T10:41:08.339Z,97621.47
2023-04-12T10:43:35.613Z,97618.97
2023-04-12T10:46:06.670Z,97613.78
2023-04-12T10:48:39.222Z,97622.09
2023-04-12T10:51:26.906Z,97616.44
2023-04-12T10:54:16.926Z,97633.66
2023-04-12T10:56:46.592Z,97613.59
2023-04-12T10:59:14.801Z,97616.38
2023-04-12T11:02:05.093Z,97612.16
2023-04-12T11:04:32.215Z,97603.91
2023-04-12T11:07:01.706Z,97598.72
2023-04-12T11:09:34.424Z,97582.53
2023-04-12T11:12:04.408Z,97584.50
2023-04-12T11:14:36.410Z,97575.53
2023-04-12T11:17:08.794Z,97587.91
2023-04-12T11:19:44.392Z,97573.09
2023-04-12T11:22:14.094Z,97574.69
2023-04-12T11:24:48.926Z,97571.56
2023-04-12T11:27:16.665Z,97570.22
2023-04-12T11:29:44.339Z,97565.97
2023-04-12T11:32:14.290Z,97556.75
2023-04-12T11:34:44.400Z,97557.91
2023-04-12T11:37:11.555Z,97560.75
2023-04-12T11:39:44.000Z,97550.00
2023-04-12T11:42:23.247Z,97545.84
2023-04-12T11:47:23.847Z,97545.94
2023-04-12T11:49:58.788Z,97544.22
2023-04-12T11:52:31.590Z,97541.56
2023-04-12T11:55:05.007Z,97536.59
2023-04-12T11:57:32.390Z,97542.69
2023-04-12T12:00:00.346Z,97553.00
2023-04-12T12:02:33.055Z,97547.56
2023-04-12T12:05:02.147Z,97530.59
2023-04-12T12:07:29.757Z,97531.25
2023-04-12T12:09:56.938Z,97531.81
2023-04-12T12:12:24.275Z,97527.91
2023-04-12T12:14:51.189Z,97520.38
2023-04-12T12:17:18.198Z,97530.94
2023-04-12T12:19:46.368Z,97508.53
2023-04-12T12:22:24.428Z,97532.09
2023-04-12T12:24:59.599Z,97529.19
2023-04-12T12:27:38.533Z,97522.22
2023-04-12T12:30:09.465Z,97515.72
2023-04-12T12:32:39.057Z,97518.63
2023-04-12T12:35:11.632Z,97521.94
2023-04-12T12:37:48.685Z,97514.13
2023-04-12T12:40:16.569Z,97508.81
2023-04-12T12:42:50.294Z,97515.78
2023-04-12T12:45:20.324Z,97503.34
2023-04-12T12:47:55.138Z,97501.00
2023-04-12T12:50:28.176Z,97489.28
2023-04-12T12:52:56.399Z,97485.31
2023-04-12T12:55:24.514Z,97484.97
2023-04-12T12:58:06.717Z,97491.66
2023-04-12T13:00:35.289Z,97486.19
2023-04-12T13:03:02.834Z,97485.81
2023-04-12T13:05:30.310Z,97495.25
2023-04-12T13:07:57.118Z,97482.38
2023-04-12T13:10:24.202Z,97472.28
2023-04-12T13:12:51.521Z,97475.34
2023-04-12T13:15:23.207Z,97466.81
2023-04-12T13:17:54.815Z,97461.31
2023-04-12T13:20:25.331Z,97458.00
2023-04-12T13:22:52.242Z,97448.16
2023-04-12T13:25:20.422Z,97458.97
2023-04-12T13:27:51.851Z,97448.25
2023-04-12T13:30:19.964Z,97445.25
2023-04-12T13:32:47.153Z,97434.31
2023-04-12T13:35:14.185Z,97428.81
2023-04-12T13:37:41.856Z,97440.91
2023-04-12T13:40:09.317Z,97434.84
2023-04-12T13:42:36.137Z,97437.59
2023-04-12T13:45:04.115Z,97437.34
2023-04-12T13:47:31.811Z,97423.66
2023-04-12T13:49:58.655Z,97426.25
2023-04-12T13:52:25.479Z,97416.97
2023-04-12T13:54:52.341Z,97418.06
2023-04-12T13:57:19.309Z,97406.41
2023-04-12T13:59:46.139Z,97406.25
2023-04-12T14:02:14.248Z,97409.03
2023-04-12T14:04:55.298Z,97406.56
2023-04-12T14:07:22.832Z,97407.94
2023-04-12T14:09:49.680Z,97405.47
2023-04-12T14:12:16.544Z,97397.66
2023-04-12T14:14:43.447Z,97397.38
2023-04-12T14:17:10.455Z,97402.97
2023-04-12T14:19:37.291Z,97388.88
2023-04-12T14:22:04.243Z,97405.06
2023-04-12T14:24:31.442Z,97420.00
2023-04-12T14:27:00.858Z,97412.31
2023-04-12T14:29:27.776Z,97391.47
2023-04-12T14:31:54.665Z,97389.25
2023-04-12T14:34:21.537Z,97380.50
2023-04-12T14:36:48.438Z,97368.53
2023-04-12T14:39:16.286Z,97393.13
2023-04-12T14:41:43.212Z,97373.63
2023-04-12T14:44:10.072Z,97395.56
2023-04-12T14:46:36.894Z,97372.25
2023-04-12T14:49:03.749Z,97381.88
2023-04-12T14:51:30.579Z,97383.06
2023-04-12T14:53:58.039Z,97373.09
2023-04-12T14:56:28.563Z,97379.13
2023-04-12T14:58:56.362Z,97376.91
2023-04-12T15:01:24.090Z,97407.13
2023-04-12T15:03:52.348Z,97394.47
2023-04-12T15:06:22.010Z,97371.72
2023-04-12T15:08:54.182Z,97396.66
2023-04-12T15:11:22.238Z,97388.97
2023-04-12T15:13:49.847Z,97396.66
2023-04-12T15:16:16.799Z,97387.59
2023-04-12T15:18:43.730Z,97391.84
2023-04-12T15:21:12.776Z,97397.75
2023-04-12T15:23:41.493Z,97405.44
2023-04-12T15:26:12.004Z,97415.47
2023-04-12T15:28:38.953Z,97397.22
2023-04-12T15:31:07.057Z,97406.00
2023-04-12T15:33:37.803Z,97435.94
2023-04-12T15:36:05.595Z,97494.84
2023-04-12T15:38:34.753Z,97519.88
2023-04-12T15:41:02.095Z,97519.19
2023-04-12T15:43:29.226Z,97534.66
2023-04-12T15:45:56.391Z,97510.97
2023-04-12T15:48:25.637Z,97527.34
2023-04-12T15:50:53.588Z,97513.19
2023-04-12T15:53:22.672Z,97521.44
2023-04-12T15:55:54.093Z,97506.16
2023-04-12T15:58:25.224Z,97514.19
2023-04-12T16:00:54.191Z,97510.41
2023-04-12T16:03:26.124Z,97500.13
2023-04-12T16:05:53.475Z,97503.91
2023-04-12T16:08:21.996Z,97522.22
2023-04-12T16:10:50.456Z,97526.00
2023-04-12T16:13:18.303Z,97533.09
2023-04-12T16:15:45.677Z,97529.56
2023-04-12T16:18:12.909Z,97525.41
2023-04-12T16:20:42.820Z,97532.50
2023-04-12T16:23:09.801Z,97540.59
2023-04-12T16:25:36.660Z,97545.19
2023-04-12T16:28:04.075Z,97550.13
2023-04-12T16:30:35.076Z,97547.09
2023-04-12T16:33:01.980Z,97555.16
2023-04-12T16:35:28.847Z,97562.97
2023-04-12T16:37:55.886Z,97557.94
2023-04-12T16:40:24.541Z,97567.03
2023-04-12T16:42:51.660Z,97553.56
2023-04-12T16:45:18.672Z,97550.50
2023-04-12T16:47:47.041Z,97538.19
2023-04-12T16:50:14.106Z,97545.53
2023-04-12T16:52:41.585Z,97539.88
2023-04-12T16:55:11.804Z,97542.69
2023-04-12T16:57:41.028Z,97543.06
2023-04-12T17:00:19.155Z,97527.88
2023-04-12T17:02:52.215Z,97538.00
2023-04-12T17:05:21.142Z,97549.13
2023-04-12T17:07:50.630Z,97535.88
2023-04-12T17:10:19.946Z,97547.44
2023-04-12T17:12:49.727Z,97549.38
2023-04-12T17:15:18.482Z,97546.53
2023-04-12T17:17:51.913Z,97543.09
2023-04-12T17:20:22.292Z,97547.59
2023-04-12T17:22:49.898Z,97560.72
2023-04-12T17:25:18.219Z,97561.06
2023-04-12T17:27:47.654Z,97575.88
2023-04-12T17:30:17.575Z,97573.91
2023-04-12T17:32:47.491Z,97576.28
2023-04-12T17:35:14.611Z,97569.66
2023-04-12T17:37:41.745Z,97586.88
2023-04-12T17:40:12.399Z,97582.75
2023-04-12T17:42:41.507Z,97593.44
2023-04-12T17:45:11.129Z,97599.06
2023-04-12T17:47:39.036Z,97605.16
2023-04-12T17:50:11.058Z,97598.75
2023-04-12T17:52:38.434Z,97588.91
2023-04-12T17:55:07.425Z,97592.19
2023-04-12T17:57:34.334Z,97588.63
2023-04-12T18:00:01.190Z,97586.75
2023-04-12T18:02:28.346Z,97586.56
2023-04-12T18:04:55.372Z,97585.53
2023-04-12T18:07:23.080Z,97582.66
2023-04-12T18:09:51.161Z,97574.34
2023-04-12T18:12:18.311Z,97566.97
2023-04-12T18:14:45.355Z,97580.38
2023-04-12T18:17:12.292Z,97577.03
2023-04-12T18:19:39.254Z,97589.47
2023-04-12T18:22:06.741Z,97588.19
2023-04-12T18:24:33.931Z,97591.25
2023-04-12T18:27:04.250Z,97610.75
2023-04-12T18:29:32.737Z,97600.09
2023-04-12T18:32:00.012Z,97601.34
2023-04-12T18:34:27.521Z,97598.63
2023-04-12T18:36:54.432Z,97601.53
2023-04-12T18:39:21.312Z,97607.44
2023-04-12T18:41:48.227Z,97614.09
2023-04-12T18:44:15.466Z,97605.41
2023-04-12T18:46:42.387Z,97619.16
2023-04-12T18:49:09.277Z,97626.16
2023-04-12T18:51:36.400Z,97622.81
2023-04-12T18:54:03.385Z,97622.00
2023-04-12T18:56:30.440Z,97630.19
2023-04-12T18:58:57.276Z,97635.44
2023-04-12T19:01:25.207Z,97640.59
2023-04-12T19:03:52.538Z,97650.97
2023-04-12T19:06:19.729Z,97652.53
2023-04-12T19:08:46.573Z,97657.22
2023-04-12T19:11:13.404Z,97648.88
2023-04-12T19:13:40.312Z,97657.28
2023-04-12T19:16:07.868Z,97645.50
2023-04-12T19:18:34.936Z,97646.63
2023-04-12T19:21:02.798Z,97638.47
2023-04-12T19:23:31.309Z,97648.59
2023-04-12T19:26:00.171Z,97652.31
2023-04-12T19:28:27.823Z,97652.81
2023-04-12T19:30:57.448Z,97644.88
2023-04-12T19:33:25.043Z,97654.28
2023-04-12T19:35:52.284Z,97647.50
2023-04-12T19:38:21.086Z,97662.78
2023-04-12T19:40:48.084Z,97665.38
2023-04-12T19:43:14.985Z,97652.81
2023-04-12T19:45:43.273Z,97666.78
2023-04-12T19:48:10.207Z,97669.31
2023-04-12T19:50:37.086Z,97666.72
2023-04-12T19:53:04.834Z,97653.31
2023-04-12T19:55:31.704Z,97645.19
2023-04-12T19:57:58.880Z,97658.56
2023-04-12T20:00:27.158Z,97674.81
2023-04-12T20:02:54.473Z,97667.88
2023-04-12T20:05:23.214Z,97670.31
2023-04-12T20:07:52.559Z,97665.50
2023-04-12T20:10:20.067Z,97659.72
2023-04-12T20:12:47.204Z,97648.50
2023-04-12T20:15:14.401Z,97655.72
2023-04-12T20:17:43.013Z,97648.88
2023-04-12T20:20:12.551Z,97644.97
2023-04-12T20:22:41.592Z,97654.78
2023-04-12T20:25:10.803Z,97649.72
2023-04-12T20:27:39.097Z,97656.16
2023-04-12T20:30:08.734Z,97661.50
2023-04-12T20:32:36.043Z,97672.47
2023-04-12T20:35:04.032Z,97669.63
2023-04-12T20:37:30.889Z,97678.78
2023-04-12T20:39:58.634Z,97688.59
2023-04-12T20:42:25.696Z,97695.78
2023-04-12T20:44:52.643Z,97689.56
2023-04-12T20:47:22.434Z,97689.34
2023-04-12T20:49:50.645Z,97698.03
2023-04-12T20:52:18.732Z,97708.97
2023-04-12T20:54:45.757Z,97712.53
2023-04-12T20:57:14.002Z,97727.09
2023-04-12T20:59:41.028Z,97728.41
2023-04-12T21:02:09.278Z,97736.63
2023-04-12T21:04:36.580Z,97740.09
2023-04-12T21:07:04.896Z,97761.16
2023-04-12T21:09:32.325Z,97766.88
2023-04-12T21:12:02.617Z,97791.97
2023-04-12T21:14:29.421Z,97802.75
2023-04-12T21:16:56.261Z,97806.91
2023-04-12T21:19:23.104Z,97791.66
2023-04-12T21:21:51.128Z,97798.41
2023-04-12T21:24:18.444Z,97812.28
2023-04-12T21:26:54.744Z,97807.91
2023-04-12T21:29:21.610Z,97786.56
2023-04-12T21:31:48.826Z,97782.84
2023-04-12T21:34:17.124Z,97764.22
2023-04-12T21:36:44.170Z,97763.59
2023-04-12T21:39:11.258Z,97771.84
2023-04-12T21:41:38.088Z,97778.44
2023-04-12T21:44:04.964Z,97787.69
2023-04-12T21:46:31.796Z,97788.25
2023-04-12T21:48:58.857Z,97789.88
2023-04-12T21:51:26.404Z,97790.00
2023-04-12T21:53:53.199Z,97803.25
2023-04-12T21:56:20.038Z,97790.00
2023-04-12T21:58:46.852Z,97803.56
2023-04-12T22:01:14.214Z,97800.34
2023-04-12T22:03:43.701Z,97798.03
2023-04-12T22:06:11.841Z,97799.34
2023-04-12T22:08:42.717Z,97791.59
2023-04-12T22:11:11.013Z,97789.31
2023-04-12T22:13:46.766Z,97791.78
2023-04-12T22:16:14.099Z,97795.94
2023-04-12T22:18:41.222Z,97815.50
2023-04-12T22:21:08.357Z,97813.03
2023-04-12T22:23:40.350Z,97812.28
2023-04-12T22:26:12.231Z,97835.16
2023-04-12T22:28:39.378Z,97833.88
2023-04-12T22:31:08.119Z,97841.75
2023-04-12T22:33:36.785Z,97842.84
2023-04-12T22:36:06.096Z,97844.50
2023-04-12T22:38:37.509Z,97839.03
2023-04-12T22:41:04.587Z,97837.06
2023-04-12T22:43:42.875Z,97841.34
2023-04-12T22:46:16.809Z,97849.72
2023-04-12T22:48:45.877Z,97850.00
2023-04-12T22:51:12.736Z,97863.78
2023-04-12T22:53:40.013Z,97861.72
2023-04-12T22:56:08.670Z,97852.00
2023-04-12T22:58:40.278Z,97853.38
2023-04-12T23:01:07.422Z,97857.50
2023-04-12T23:03:34.440Z,97860.31
2023-04-12T23:06:01.945Z,97857.59
2023-04-12T23:08:29.101Z,97856.34
2023-04-12T23:11:02.261Z,97861.31
2023-04-12T23:13:29.762Z,97851.69
2023-04-12T23:15:57.712Z,97860.31
2023-04-12T23:18:25.769Z,97853.28
2023-04-12T23:20:53.919Z,97842.66
2023-04-12T23:23:24.517Z,97850.41
2023-04-12T23:25:52.253Z,97830.81
2023-04-12T23:28:19.617Z,97848.34
2023-04-12T23:30:49.557Z,97832.50
2023-04-12T23:33:21.472Z,97839.53
2023-04-12T23:35:52.275Z,97834.34
2023-04-12T23:38:34.750Z,97840.66
2023-04-12T23:41:03.866Z,97844.19
2023-04-12T23:43:34.865Z,97844.19
2023-04-12T23:46:03.147Z,97846.94
2023-04-12T23:48:31.481Z,97848.28
2023-04-12T23:50:58.746Z,97854.22
2023-04-12T23:53:25.792Z,97845.22
2023-04-12T23:55:53.661Z,97858.47
2023-04-12T23:58:21.491Z,97851.66
